sensor_id;sensor_type;location;lat;lon;timestamp;temperature;humidity
5964;DHT22;69025;53.712;9.680;2023-04-06T00:01:10;20.30;74.70
5964;DHT22;69025;53.712;9.680;2023-04-06T00:03:36;20.30;73.90
5964;DHT22;69025;53.712;9.680;2023-04-06T00:06:02;20.30;73.80
5964;DHT22;69025;53.712;9.680;2023-04-06T00:08:27;20.30;73.90
5964;DHT22;69025;53.712;9.680;2023-04-06T00:10:54;20.30;73.80
5964;DHT22;69025;53.712;9.680;2023-04-06T00:13:20;20.30;73.80
5964;DHT22;69025;53.712;9.680;2023-04-06T00:15:45;20.20;73.80
5964;DHT22;69025;53.712;9.680;2023-04-06T00:18:11;20.30;73.80
5964;DHT22;69025;53.712;9.680;2023-04-06T00:20:37;20.30;73.80
5964;DHT22;69025;53.712;9.680;2023-04-06T00:23:03;20.30;73.90
5964;DHT22;69025;53.712;9.680;2023-04-06T00:25:29;20.30;73.80
5964;DHT22;69025;53.712;9.680;2023-04-06T00:27:54;20.30;73.80
5964;DHT22;69025;53.712;9.680;2023-04-06T00:30:20;20.30;73.80
5964;DHT22;69025;53.712;9.680;2023-04-06T00:32:46;20.20;73.70
5964;DHT22;69025;53.712;9.680;2023-04-06T00:35:11;20.30;73.80
5964;DHT22;69025;53.712;9.680;2023-04-06T00:37:37;20.20;73.70
5964;DHT22;69025;53.712;9.680;2023-04-06T00:40:03;20.20;73.70
5964;DHT22;69025;53.712;9.680;2023-04-06T00:42:29;20.20;73.70
5964;DHT22;69025;53.712;9.680;2023-04-06T00:44:57;20.20;73.70
5964;DHT22;69025;53.712;9.680;2023-04-06T00:47:23;20.20;73.70
5964;DHT22;69025;53.712;9.680;2023-04-06T00:49:51;20.20;73.70
5964;DHT22;69025;53.712;9.680;2023-04-06T00:52:17;20.30;73.80
5964;DHT22;69025;53.712;9.680;2023-04-06T00:54:43;20.20;73.70
5964;DHT22;69025;53.712;9.680;2023-04-06T00:57:10;20.20;73.60
5964;DHT22;69025;53.712;9.680;2023-04-06T00:59:36;20.20;73.70
5964;DHT22;69025;53.712;9.680;2023-04-06T01:02:02;20.20;73.70
5964;DHT22;69025;53.712;9.680;2023-04-06T01:04:28;20.20;73.70
5964;DHT22;69025;53.712;9.680;2023-04-06T01:06:53;20.20;73.70
5964;DHT22;69025;53.712;9.680;2023-04-06T01:09:19;20.20;73.70
5964;DHT22;69025;53.712;9.680;2023-04-06T01:11:45;20.20;73.70
5964;DHT22;69025;53.712;9.680;2023-04-06T01:14:10;20.10;73.60
5964;DHT22;69025;53.712;9.680;2023-04-06T01:16:36;20.10;73.50
5964;DHT22;69025;53.712;9.680;2023-04-06T01:19:09;20.10;73.50
5964;DHT22;69025;53.712;9.680;2023-04-06T01:21:36;20.10;73.50
5964;DHT22;69025;53.712;9.680;2023-04-06T01:24:02;20.10;73.50
5964;DHT22;69025;53.712;9.680;2023-04-06T01:26:28;20.10;73.50
5964;DHT22;69025;53.712;9.680;2023-04-06T01:28:55;20.10;73.50
5964;DHT22;69025;53.712;9.680;2023-04-06T01:31:21;20.10;73.50
5964;DHT22;69025;53.712;9.680;2023-04-06T01:33:47;20.10;73.40
5964;DHT22;69025;53.712;9.680;2023-04-06T01:36:12;20.10;73.50
5964;DHT22;69025;53.712;9.680;2023-04-06T01:38:38;20.10;73.50
5964;DHT22;69025;53.712;9.680;2023-04-06T01:41:04;20.10;73.50
5964;DHT22;69025;53.712;9.680;2023-04-06T01:43:30;20.10;73.50
5964;DHT22;69025;53.712;9.680;2023-04-06T01:45:55;20.10;73.40
5964;DHT22;69025;53.712;9.680;2023-04-06T01:48:21;20.10;73.50
5964;DHT22;69025;53.712;9.680;2023-04-06T01:50:47;20.10;73.80
5964;DHT22;69025;53.712;9.680;2023-04-06T01:53:12;20.10;73.50
5964;DHT22;69025;53.712;9.680;2023-04-06T01:55:38;20.10;73.50
5964;DHT22;69025;53.712;9.680;2023-04-06T01:58:04;20.10;73.50
5964;DHT22;69025;53.712;9.680;2023-04-06T02:00:29;20.10;73.50
5964;DHT22;69025;53.712;9.680;2023-04-06T02:02:55;20.10;73.50
5964;DHT22;69025;53.712;9.680;2023-04-06T02:05:21;20.10;73.40
5964;DHT22;69025;53.712;9.680;2023-04-06T02:07:46;20.10;73.50
5964;DHT22;69025;53.712;9.680;2023-04-06T02:10:13;20.10;73.40
5964;DHT22;69025;53.712;9.680;2023-04-06T02:12:39;20.00;73.40
5964;DHT22;69025;53.712;9.680;2023-04-06T02:15:05;20.00;73.40
5964;DHT22;69025;53.712;9.680;2023-04-06T02:17:31;20.00;73.40
5964;DHT22;69025;53.712;9.680;2023-04-06T02:22:27;20.00;73.30
5964;DHT22;69025;53.712;9.680;2023-04-06T02:24:52;20.00;73.40
5964;DHT22;69025;53.712;9.680;2023-04-06T02:27:18;20.00;73.40
5964;DHT22;69025;53.712;9.680;2023-04-06T02:29:44;20.00;73.30
5964;DHT22;69025;53.712;9.680;2023-04-06T02:32:09;20.00;73.40
5964;DHT22;69025;53.712;9.680;2023-04-06T02:34:35;20.00;73.30
5964;DHT22;69025;53.712;9.680;2023-04-06T02:37:01;20.00;74.20
5964;DHT22;69025;53.712;9.680;2023-04-06T02:39:26;20.00;73.30
5964;DHT22;69025;53.712;9.680;2023-04-06T02:41:52;20.00;73.30
5964;DHT22;69025;53.712;9.680;2023-04-06T02:44:18;20.00;73.30
5964;DHT22;69025;53.712;9.680;2023-04-06T02:46:44;20.00;73.30
5964;DHT22;69025;53.712;9.680;2023-04-06T02:49:09;20.00;73.30
5964;DHT22;69025;53.712;9.680;2023-04-06T02:51:35;20.00;73.40
5964;DHT22;69025;53.712;9.680;2023-04-06T02:54:01;19.90;73.20
5964;DHT22;69025;53.712;9.680;2023-04-06T02:56:26;20.00;73.30
5964;DHT22;69025;53.712;9.680;2023-04-06T02:58:52;19.90;73.20
5964;DHT22;69025;53.712;9.680;2023-04-06T03:01:17;20.00;73.30
5964;DHT22;69025;53.712;9.680;2023-04-06T03:03:43;20.00;73.30
5964;DHT22;69025;53.712;9.680;2023-04-06T03:06:09;19.90;73.20
5964;DHT22;69025;53.712;9.680;2023-04-06T03:08:35;19.90;73.20
5964;DHT22;69025;53.712;9.680;2023-04-06T03:11:00;19.90;73.20
5964;DHT22;69025;53.712;9.680;2023-04-06T03:13:26;19.90;73.10
5964;DHT22;69025;53.712;9.680;2023-04-06T03:15:52;19.90;73.10
5964;DHT22;69025;53.712;9.680;2023-04-06T03:18:22;19.90;73.20
5964;DHT22;69025;53.712;9.680;2023-04-06T03:20:51;19.90;73.20
5964;DHT22;69025;53.712;9.680;2023-04-06T03:23:19;19.90;73.20
5964;DHT22;69025;53.712;9.680;2023-04-06T03:25:46;19.90;73.10
5964;DHT22;69025;53.712;9.680;2023-04-06T03:28:12;19.90;73.30
5964;DHT22;69025;53.712;9.680;2023-04-06T03:30:37;19.90;73.20
5964;DHT22;69025;53.712;9.680;2023-04-06T03:33:03;19.90;73.20
5964;DHT22;69025;53.712;9.680;2023-04-06T03:35:29;19.90;73.20
5964;DHT22;69025;53.712;9.680;2023-04-06T03:37:55;19.90;73.20
5964;DHT22;69025;53.712;9.680;2023-04-06T03:40:21;19.90;73.10
5964;DHT22;69025;53.712;9.680;2023-04-06T03:42:46;19.90;73.20
5964;DHT22;69025;53.712;9.680;2023-04-06T03:45:12;19.90;73.20
5964;DHT22;69025;53.712;9.680;2023-04-06T03:47:41;19.90;73.20
5964;DHT22;69025;53.712;9.680;2023-04-06T03:50:07;19.80;73.10
5964;DHT22;69025;53.712;9.680;2023-04-06T03:52:32;19.90;73.20
5964;DHT22;69025;53.712;9.680;2023-04-06T03:54:58;19.90;73.10
5964;DHT22;69025;53.712;9.680;2023-04-06T03:57:24;19.90;73.20
5964;DHT22;69025;53.712;9.680;2023-04-06T03:59:50;19.90;73.20
5964;DHT22;69025;53.712;9.680;2023-04-06T04:02:15;19.80;73.10
5964;DHT22;69025;53.712;9.680;2023-04-06T04:04:41;19.90;73.20
5964;DHT22;69025;53.712;9.680;2023-04-06T04:07:06;19.80;73.10
5964;DHT22;69025;53.712;9.680;2023-04-06T04:09:32;19.80;73.10
5964;DHT22;69025;53.712;9.680;2023-04-06T04:11:58;19.90;73.20
5964;DHT22;69025;53.712;9.680;2023-04-06T04:14:23;19.80;73.10
5964;DHT22;69025;53.712;9.680;2023-04-06T04:16:49;19.80;73.10
5964;DHT22;69025;53.712;9.680;2023-04-06T04:19:15;19.80;73.10
5964;DHT22;69025;53.712;9.680;2023-04-06T04:21:46;19.80;73.10
5964;DHT22;69025;53.712;9.680;2023-04-06T04:24:13;19.80;73.00
5964;DHT22;69025;53.712;9.680;2023-04-06T04:26:38;19.80;73.00
5964;DHT22;69025;53.712;9.680;2023-04-06T04:29:04;19.80;73.10
5964;DHT22;69025;53.712;9.680;2023-04-06T04:31:30;19.80;73.00
5964;DHT22;69025;53.712;9.680;2023-04-06T04:33:57;19.80;73.00
5964;DHT22;69025;53.712;9.680;2023-04-06T04:36:22;19.80;73.00
5964;DHT22;69025;53.712;9.680;2023-04-06T04:38:49;19.80;73.00
5964;DHT22;69025;53.712;9.680;2023-04-06T04:41:15;19.80;72.90
5964;DHT22;69025;53.712;9.680;2023-04-06T04:43:41;19.80;72.90
5964;DHT22;69025;53.712;9.680;2023-04-06T04:46:07;19.80;72.90
5964;DHT22;69025;53.712;9.680;2023-04-06T04:48:33;19.80;72.90
5964;DHT22;69025;53.712;9.680;2023-04-06T04:50:58;19.80;73.00
5964;DHT22;69025;53.712;9.680;2023-04-06T04:53:24;19.80;72.90
5964;DHT22;69025;53.712;9.680;2023-04-06T04:55:49;19.80;72.90
5964;DHT22;69025;53.712;9.680;2023-04-06T04:58:15;19.80;72.90
5964;DHT22;69025;53.712;9.680;2023-04-06T05:00:42;19.80;72.90
5964;DHT22;69025;53.712;9.680;2023-04-06T05:03:09;19.80;72.90
5964;DHT22;69025;53.712;9.680;2023-04-06T05:05:36;19.80;72.90
5964;DHT22;69025;53.712;9.680;2023-04-06T05:08:01;19.80;74.10
5964;DHT22;69025;53.712;9.680;2023-04-06T05:10:27;19.80;74.00
5964;DHT22;69025;53.712;9.680;2023-04-06T05:12:53;19.90;74.90
5964;DHT22;69025;53.712;9.680;2023-04-06T05:15:19;19.90;75.10
5964;DHT22;69025;53.712;9.680;2023-04-06T05:17:45;19.90;75.70
5964;DHT22;69025;53.712;9.680;2023-04-06T05:20:10;19.90;75.80
5964;DHT22;69025;53.712;9.680;2023-04-06T05:22:36;20.00;76.10
5964;DHT22;69025;53.712;9.680;2023-04-06T05:25:03;20.00;76.20
5964;DHT22;69025;53.712;9.680;2023-04-06T05:27:28;20.00;76.10
5964;DHT22;69025;53.712;9.680;2023-04-06T05:29:54;20.10;76.50
5964;DHT22;69025;53.712;9.680;2023-04-06T05:32:20;20.10;76.30
5964;DHT22;69025;53.712;9.680;2023-04-06T05:34:48;20.10;76.30
5964;DHT22;69025;53.712;9.680;2023-04-06T05:37:15;20.10;76.40
5964;DHT22;69025;53.712;9.680;2023-04-06T05:39:41;20.10;76.40
5964;DHT22;69025;53.712;9.680;2023-04-06T05:42:07;20.10;76.10
5964;DHT22;69025;53.712;9.680;2023-04-06T05:44:32;20.10;76.10
5964;DHT22;69025;53.712;9.680;2023-04-06T05:46:58;20.10;76.10
5964;DHT22;69025;53.712;9.680;2023-04-06T05:49:24;20.10;76.10
5964;DHT22;69025;53.712;9.680;2023-04-06T05:51:49;20.20;75.80
5964;DHT22;69025;53.712;9.680;2023-04-06T05:54:15;20.20;75.60
5964;DHT22;69025;53.712;9.680;2023-04-06T05:56:41;20.20;75.20
5964;DHT22;69025;53.712;9.680;2023-04-06T05:59:06;20.20;75.10
5964;DHT22;69025;53.712;9.680;2023-04-06T06:01:33;20.20;75.10
5964;DHT22;69025;53.712;9.680;2023-04-06T06:04:03;20.20;75.00
5964;DHT22;69025;53.712;9.680;2023-04-06T06:06:29;20.20;75.00
5964;DHT22;69025;53.712;9.680;2023-04-06T06:08:57;20.20;75.00
5964;DHT22;69025;53.712;9.680;2023-04-06T06:11:27;20.30;75.10
5964;DHT22;69025;53.712;9.680;2023-04-06T06:13:52;20.30;75.10
5964;DHT22;69025;53.712;9.680;2023-04-06T06:16:19;20.30;75.00
5964;DHT22;69025;53.712;9.680;2023-04-06T06:18:45;20.30;75.00
5964;DHT22;69025;53.712;9.680;2023-04-06T06:21:11;20.30;75.10
5964;DHT22;69025;53.712;9.680;2023-04-06T06:23:38;20.30;75.00
5964;DHT22;69025;53.712;9.680;2023-04-06T06:26:04;20.30;75.10
5964;DHT22;69025;53.712;9.680;2023-04-06T06:28:30;20.30;75.00
5964;DHT22;69025;53.712;9.680;2023-04-06T06:30:56;20.30;75.10
5964;DHT22;69025;53.712;9.680;2023-04-06T06:33:22;20.30;75.10
5964;DHT22;69025;53.712;9.680;2023-04-06T06:35:48;20.30;75.10
5964;DHT22;69025;53.712;9.680;2023-04-06T06:38:14;20.30;75.10
5964;DHT22;69025;53.712;9.680;2023-04-06T06:40:40;20.30;75.10
5964;DHT22;69025;53.712;9.680;2023-04-06T06:43:06;20.30;75.10
5964;DHT22;69025;53.712;9.680;2023-04-06T06:45:32;20.30;75.10
5964;DHT22;69025;53.712;9.680;2023-04-06T06:47:58;20.30;75.10
5964;DHT22;69025;53.712;9.680;2023-04-06T06:50:24;20.30;75.10
5964;DHT22;69025;53.712;9.680;2023-04-06T06:52:50;20.30;75.10
5964;DHT22;69025;53.712;9.680;2023-04-06T06:55:15;20.30;75.10
5964;DHT22;69025;53.712;9.680;2023-04-06T06:57:41;20.30;75.10
5964;DHT22;69025;53.712;9.680;2023-04-06T07:00:08;20.40;75.30
5964;DHT22;69025;53.712;9.680;2023-04-06T07:02:35;20.30;75.30
5964;DHT22;69025;53.712;9.680;2023-04-06T07:05:02;20.30;75.40
5964;DHT22;69025;53.712;9.680;2023-04-06T07:07:28;20.30;75.60
5964;DHT22;69025;53.712;9.680;2023-04-06T07:09:54;20.30;75.60
5964;DHT22;69025;53.712;9.680;2023-04-06T07:12:19;20.30;75.80
5964;DHT22;69025;53.712;9.680;2023-04-06T07:14:45;20.30;75.90
5964;DHT22;69025;53.712;9.680;2023-04-06T07:17:11;20.40;76.00
5964;DHT22;69025;53.712;9.680;2023-04-06T07:19:36;20.40;76.10
5964;DHT22;69025;53.712;9.680;2023-04-06T07:22:02;20.40;76.20
5964;DHT22;69025;53.712;9.680;2023-04-06T07:24:28;20.40;76.30
5964;DHT22;69025;53.712;9.680;2023-04-06T07:26:55;20.40;76.30
5964;DHT22;69025;53.712;9.680;2023-04-06T07:29:21;20.40;76.30
5964;DHT22;69025;53.712;9.680;2023-04-06T07:31:48;20.40;76.30
5964;DHT22;69025;53.712;9.680;2023-04-06T07:34:14;20.40;76.30
5964;DHT22;69025;53.712;9.680;2023-04-06T07:36:40;20.50;76.50
5964;DHT22;69025;53.712;9.680;2023-04-06T07:39:07;20.50;76.70
5964;DHT22;69025;53.712;9.680;2023-04-06T07:41:32;20.50;76.70
5964;DHT22;69025;53.712;9.680;2023-04-06T07:43:58;20.60;76.80
5964;DHT22;69025;53.712;9.680;2023-04-06T07:46:24;20.50;76.80
5964;DHT22;69025;53.712;9.680;2023-04-06T07:48:50;20.50;76.80
5964;DHT22;69025;53.712;9.680;2023-04-06T07:51:16;20.50;76.80
5964;DHT22;69025;53.712;9.680;2023-04-06T07:53:44;20.60;76.90
5964;DHT22;69025;53.712;9.680;2023-04-06T07:56:10;20.60;77.00
5964;DHT22;69025;53.712;9.680;2023-04-06T07:58:37;20.60;77.10
5964;DHT22;69025;53.712;9.680;2023-04-06T08:01:03;20.60;77.00
5964;DHT22;69025;53.712;9.680;2023-04-06T08:03:29;20.60;77.30
5964;DHT22;69025;53.712;9.680;2023-04-06T08:05:54;20.60;77.10
5964;DHT22;69025;53.712;9.680;2023-04-06T08:08:21;20.60;77.30
5964;DHT22;69025;53.712;9.680;2023-04-06T08:10:47;20.70;77.60
5964;DHT22;69025;53.712;9.680;2023-04-06T08:13:14;20.70;77.60
5964;DHT22;69025;53.712;9.680;2023-04-06T08:15:39;20.70;77.90
5964;DHT22;69025;53.712;9.680;2023-04-06T08:18:05;20.70;77.60
5964;DHT22;69025;53.712;9.680;2023-04-06T08:20:31;20.70;77.70
5964;DHT22;69025;53.712;9.680;2023-04-06T08:22:57;20.70;77.90
5964;DHT22;69025;53.712;9.680;2023-04-06T08:25:23;20.80;77.90
5964;DHT22;69025;53.712;9.680;2023-04-06T08:27:48;20.70;77.60
5964;DHT22;69025;53.712;9.680;2023-04-06T08:30:14;20.80;77.70
5964;DHT22;69025;53.712;9.680;2023-04-06T08:32:45;20.70;77.50
5964;DHT22;69025;53.712;9.680;2023-04-06T08:35:11;20.80;77.40
5964;DHT22;69025;53.712;9.680;2023-04-06T08:37:37;20.80;77.30
5964;DHT22;69025;53.712;9.680;2023-04-06T08:40:03;20.70;77.10
5964;DHT22;69025;53.712;9.680;2023-04-06T08:42:32;20.80;77.00
5964;DHT22;69025;53.712;9.680;2023-04-06T08:44:58;20.80;76.90
5964;DHT22;69025;53.712;9.680;2023-04-06T08:47:25;20.80;76.90
5964;DHT22;69025;53.712;9.680;2023-04-06T08:49:53;21.40;77.50
5964;DHT22;69025;53.712;9.680;2023-04-06T08:52:19;20.80;76.80
5964;DHT22;69025;53.712;9.680;2023-04-06T08:54:45;20.80;76.80
5964;DHT22;69025;53.712;9.680;2023-04-06T08:57:11;20.80;76.70
5964;DHT22;69025;53.712;9.680;2023-04-06T08:59:38;20.80;76.60
5964;DHT22;69025;53.712;9.680;2023-04-06T09:02:04;20.80;76.60
5964;DHT22;69025;53.712;9.680;2023-04-06T09:04:32;20.80;76.50
5964;DHT22;69025;53.712;9.680;2023-04-06T09:06:59;20.80;76.50
5964;DHT22;69025;53.712;9.680;2023-04-06T09:09:24;20.80;76.40
5964;DHT22;69025;53.712;9.680;2023-04-06T09:11:51;20.80;76.30
5964;DHT22;69025;53.712;9.680;2023-04-06T09:14:32;20.80;76.30
5964;DHT22;69025;53.712;9.680;2023-04-06T09:16:59;20.80;76.30
5964;DHT22;69025;53.712;9.680;2023-04-06T09:19:25;20.80;76.20
5964;DHT22;69025;53.712;9.680;2023-04-06T09:22:02;20.80;76.10
5964;DHT22;69025;53.712;9.680;2023-04-06T09:24:27;20.80;76.20
5964;DHT22;69025;53.712;9.680;2023-04-06T09:26:53;20.80;75.90
5964;DHT22;69025;53.712;9.680;2023-04-06T09:29:23;20.80;75.80
5964;DHT22;69025;53.712;9.680;2023-04-06T09:31:49;20.80;76.60
5964;DHT22;69025;53.712;9.680;2023-04-06T09:34:22;20.80;75.60
5964;DHT22;69025;53.712;9.680;2023-04-06T09:36:49;20.80;75.50
5964;DHT22;69025;53.712;9.680;2023-04-06T09:39:15;20.80;75.60
5964;DHT22;69025;53.712;9.680;2023-04-06T09:41:40;20.80;75.60
5964;DHT22;69025;53.712;9.680;2023-04-06T09:44:11;20.90;75.70
5964;DHT22;69025;53.712;9.680;2023-04-06T09:46:41;20.80;75.60
5964;DHT22;69025;53.712;9.680;2023-04-06T09:49:08;20.80;75.50
5964;DHT22;69025;53.712;9.680;2023-04-06T09:51:45;20.80;75.60
5964;DHT22;69025;53.712;9.680;2023-04-06T09:54:18;20.80;75.60
5964;DHT22;69025;53.712;9.680;2023-04-06T09:56:47;20.90;75.60
5964;DHT22;69025;53.712;9.680;2023-04-06T10:01:58;20.80;75.40
5964;DHT22;69025;53.712;9.680;2023-04-06T10:04:46;20.80;75.40
5964;DHT22;69025;53.712;9.680;2023-04-06T10:07:13;19.80;74.40
5964;DHT22;69025;53.712;9.680;2023-04-06T10:09:44;20.90;75.50
5964;DHT22;69025;53.712;9.680;2023-04-06T10:12:12;20.90;75.50
5964;DHT22;69025;53.712;9.680;2023-04-06T10:14:38;20.90;75.50
5964;DHT22;69025;53.712;9.680;2023-04-06T10:17:06;20.90;75.50
5964;DHT22;69025;53.712;9.680;2023-04-06T10:22:02;20.90;75.40
5964;DHT22;69025;53.712;9.680;2023-04-06T10:24:30;20.90;75.40
5964;DHT22;69025;53.712;9.680;2023-04-06T10:27:01;20.90;75.30
5964;DHT22;69025;53.712;9.680;2023-04-06T10:29:27;20.90;75.30
5964;DHT22;69025;53.712;9.680;2023-04-06T10:31:53;20.90;75.40
5964;DHT22;69025;53.712;9.680;2023-04-06T10:34:20;20.90;75.20
5964;DHT22;69025;53.712;9.680;2023-04-06T10:36:46;20.90;75.30
5964;DHT22;69025;53.712;9.680;2023-04-06T10:39:12;20.90;75.20
5964;DHT22;69025;53.712;9.680;2023-04-06T10:41:45;20.90;75.20
5964;DHT22;69025;53.712;9.680;2023-04-06T10:44:24;20.90;75.20
5964;DHT22;69025;53.712;9.680;2023-04-06T10:46:57;21.00;75.30
5964;DHT22;69025;53.712;9.680;2023-04-06T10:49:24;21.00;75.20
5964;DHT22;69025;53.712;9.680;2023-04-06T10:51:57;21.00;75.30
5964;DHT22;69025;53.712;9.680;2023-04-06T10:54:24;20.90;75.20
5964;DHT22;69025;53.712;9.680;2023-04-06T10:56:51;21.00;75.10
5964;DHT22;69025;53.712;9.680;2023-04-06T10:59:22;21.00;75.30
5964;DHT22;69025;53.712;9.680;2023-04-06T11:01:50;21.00;75.40
5964;DHT22;69025;53.712;9.680;2023-04-06T11:04:20;21.00;75.40
5964;DHT22;69025;53.712;9.680;2023-04-06T11:06:47;21.00;75.40
5964;DHT22;69025;53.712;9.680;2023-04-06T11:09:27;21.00;75.40
5964;DHT22;69025;53.712;9.680;2023-04-06T11:11:53;21.00;75.40
5964;DHT22;69025;53.712;9.680;2023-04-06T11:14:19;21.00;75.40
5964;DHT22;69025;53.712;9.680;2023-04-06T11:16:47;21.00;75.30
5964;DHT22;69025;53.712;9.680;2023-04-06T11:19:16;21.00;75.30
5964;DHT22;69025;53.712;9.680;2023-04-06T11:21:44;21.00;75.30
5964;DHT22;69025;53.712;9.680;2023-04-06T11:24:14;21.00;75.30
5964;DHT22;69025;53.712;9.680;2023-04-06T11:26:46;21.00;75.20
5964;DHT22;69025;53.712;9.680;2023-04-06T11:29:15;21.00;75.20
5964;DHT22;69025;53.712;9.680;2023-04-06T11:31:44;21.00;75.10
5964;DHT22;69025;53.712;9.680;2023-04-06T11:36:44;21.00;75.20
5964;DHT22;69025;53.712;9.680;2023-04-06T11:39:11;21.00;75.10
5964;DHT22;69025;53.712;9.680;2023-04-06T11:41:37;21.00;75.10
5964;DHT22;69025;53.712;9.680;2023-04-06T11:44:03;21.00;75.10
5964;DHT22;69025;53.712;9.680;2023-04-06T11:46:31;21.10;75.20
5964;DHT22;69025;53.712;9.680;2023-04-06T11:49:01;21.10;75.10
5964;DHT22;69025;53.712;9.680;2023-04-06T11:51:28;21.00;75.00
5964;DHT22;69025;53.712;9.680;2023-04-06T11:53:54;21.00;75.00
5964;DHT22;69025;53.712;9.680;2023-04-06T11:56:24;21.00;74.90
5964;DHT22;69025;53.712;9.680;2023-04-06T11:58:50;21.10;75.00
5964;DHT22;69025;53.712;9.680;2023-04-06T12:01:16;21.10;75.00
5964;DHT22;69025;53.712;9.680;2023-04-06T12:03:41;21.10;75.80
5964;DHT22;69025;53.712;9.680;2023-04-06T12:06:07;21.10;75.00
5964;DHT22;69025;53.712;9.680;2023-04-06T12:08:32;21.10;75.00
5964;DHT22;69025;53.712;9.680;2023-04-06T12:10:58;21.10;75.00
5964;DHT22;69025;53.712;9.680;2023-04-06T12:13:24;21.10;75.00
5964;DHT22;69025;53.712;9.680;2023-04-06T12:15:50;21.10;74.90
5964;DHT22;69025;53.712;9.680;2023-04-06T12:18:16;21.10;74.90
5964;DHT22;69025;53.712;9.680;2023-04-06T12:20:42;21.10;74.90
5964;DHT22;69025;53.712;9.680;2023-04-06T12:23:07;21.10;74.80
5964;DHT22;69025;53.712;9.680;2023-04-06T12:25:33;21.10;74.80
5964;DHT22;69025;53.712;9.680;2023-04-06T12:27:58;21.10;74.80
5964;DHT22;69025;53.712;9.680;2023-04-06T12:30:24;21.10;74.80
5964;DHT22;69025;53.712;9.680;2023-04-06T12:32:50;21.10;74.90
5964;DHT22;69025;53.712;9.680;2023-04-06T12:35:16;21.10;74.80
5964;DHT22;69025;53.712;9.680;2023-04-06T12:37:42;21.10;74.80
5964;DHT22;69025;53.712;9.680;2023-04-06T12:40:08;21.20;74.80
5964;DHT22;69025;53.712;9.680;2023-04-06T12:42:36;21.40;75.00
5964;DHT22;69025;53.712;9.680;2023-04-06T12:45:02;21.20;74.90
5964;DHT22;69025;53.712;9.680;2023-04-06T12:47:27;21.20;74.80
5964;DHT22;69025;53.712;9.680;2023-04-06T12:49:54;21.20;74.80
5964;DHT22;69025;53.712;9.680;2023-04-06T12:52:20;21.20;75.70
5964;DHT22;69025;53.712;9.680;2023-04-06T12:54:47;21.20;74.80
5964;DHT22;69025;53.712;9.680;2023-04-06T12:57:13;21.20;74.80
5964;DHT22;69025;53.712;9.680;2023-04-06T12:59:38;21.20;74.80
5964;DHT22;69025;53.712;9.680;2023-04-06T13:02:09;21.20;74.70
5964;DHT22;69025;53.712;9.680;2023-04-06T13:04:36;21.30;74.80
5964;DHT22;69025;53.712;9.680;2023-04-06T13:07:01;21.30;74.80
5964;DHT22;69025;53.712;9.680;2023-04-06T13:09:27;21.30;74.80
5964;DHT22;69025;53.712;9.680;2023-04-06T13:11:52;21.30;74.70
5964;DHT22;69025;53.712;9.680;2023-04-06T13:14:18;21.30;74.70
5964;DHT22;69025;53.712;9.680;2023-04-06T13:16:44;21.30;74.70
5964;DHT22;69025;53.712;9.680;2023-04-06T13:19:10;21.30;74.80
5964;DHT22;69025;53.712;9.680;2023-04-06T13:21:36;21.40;74.70
5964;DHT22;69025;53.712;9.680;2023-04-06T13:24:01;21.40;74.80
5964;DHT22;69025;53.712;9.680;2023-04-06T13:26:27;21.50;74.40
5964;DHT22;69025;53.712;9.680;2023-04-06T13:28:53;21.60;74.40
5964;DHT22;69025;53.712;9.680;2023-04-06T13:31:21;21.60;74.20
5964;DHT22;69025;53.712;9.680;2023-04-06T13:33:47;21.70;74.10
5964;DHT22;69025;53.712;9.680;2023-04-06T13:36:12;21.70;73.80
5964;DHT22;69025;53.712;9.680;2023-04-06T13:38:38;21.70;73.70
5964;DHT22;69025;53.712;9.680;2023-04-06T13:41:04;21.80;73.60
5964;DHT22;69025;53.712;9.680;2023-04-06T13:43:31;21.30;73.00
5964;DHT22;69025;53.712;9.680;2023-04-06T13:45:57;21.80;73.60
5964;DHT22;69025;53.712;9.680;2023-04-06T13:48:25;21.90;73.40
5964;DHT22;69025;53.712;9.680;2023-04-06T13:50:51;21.90;73.20
5964;DHT22;69025;53.712;9.680;2023-04-06T13:53:18;21.90;73.10
5964;DHT22;69025;53.712;9.680;2023-04-06T13:55:44;21.90;73.10
5964;DHT22;69025;53.712;9.680;2023-04-06T13:58:17;21.90;73.10
5964;DHT22;69025;53.712;9.680;2023-04-06T14:00:42;22.00;73.10
5964;DHT22;69025;53.712;9.680;2023-04-06T14:03:08;22.00;74.00
5964;DHT22;69025;53.712;9.680;2023-04-06T14:05:33;22.00;73.10
5964;DHT22;69025;53.712;9.680;2023-04-06T14:07:59;22.00;72.90
5964;DHT22;69025;53.712;9.680;2023-04-06T14:10:25;22.00;73.00
5964;DHT22;69025;53.712;9.680;2023-04-06T14:12:52;22.10;73.00
5964;DHT22;69025;53.712;9.680;2023-04-06T14:15:18;22.10;72.90
5964;DHT22;69025;53.712;9.680;2023-04-06T14:17:44;22.10;72.90
5964;DHT22;69025;53.712;9.680;2023-04-06T14:20:10;22.10;72.90
5964;DHT22;69025;53.712;9.680;2023-04-06T14:22:40;22.20;73.10
5964;DHT22;69025;53.712;9.680;2023-04-06T14:25:07;22.20;73.10
5964;DHT22;69025;53.712;9.680;2023-04-06T14:27:32;22.20;73.00
5964;DHT22;69025;53.712;9.680;2023-04-06T14:29:58;22.20;72.90
5964;DHT22;69025;53.712;9.680;2023-04-06T14:32:24;22.30;73.10
5964;DHT22;69025;53.712;9.680;2023-04-06T14:34:50;22.30;73.10
5964;DHT22;69025;53.712;9.680;2023-04-06T14:37:15;22.30;73.20
5964;DHT22;69025;53.712;9.680;2023-04-06T14:39:42;22.30;73.30
5964;DHT22;69025;53.712;9.680;2023-04-06T14:42:08;22.30;73.30
5964;DHT22;69025;53.712;9.680;2023-04-06T14:44:34;22.40;73.30
5964;DHT22;69025;53.712;9.680;2023-04-06T14:47:02;22.40;73.30
5964;DHT22;69025;53.712;9.680;2023-04-06T14:49:29;22.40;73.40
5964;DHT22;69025;53.712;9.680;2023-04-06T14:51:55;22.40;73.30
5964;DHT22;69025;53.712;9.680;2023-04-06T14:54:21;22.30;73.30
5964;DHT22;69025;53.712;9.680;2023-04-06T14:56:46;22.30;73.50
5964;DHT22;69025;53.712;9.680;2023-04-06T14:59:12;22.30;73.50
5964;DHT22;69025;53.712;9.680;2023-04-06T15:01:37;22.30;73.50
5964;DHT22;69025;53.712;9.680;2023-04-06T15:04:03;22.40;73.80
5964;DHT22;69025;53.712;9.680;2023-04-06T15:06:29;22.40;73.80
5964;DHT22;69025;53.712;9.680;2023-04-06T15:08:55;22.40;73.80
5964;DHT22;69025;53.712;9.680;2023-04-06T15:11:21;22.40;73.60
5964;DHT22;69025;53.712;9.680;2023-04-06T15:13:47;22.40;73.60
5964;DHT22;69025;53.712;9.680;2023-04-06T15:16:12;22.40;73.40
5964;DHT22;69025;53.712;9.680;2023-04-06T15:18:40;22.40;73.10
5964;DHT22;69025;53.712;9.680;2023-04-06T15:21:05;22.40;73.50
5964;DHT22;69025;53.712;9.680;2023-04-06T15:23:33;22.40;73.50
5964;DHT22;69025;53.712;9.680;2023-04-06T15:26:00;22.40;73.70
5964;DHT22;69025;53.712;9.680;2023-04-06T15:28:26;22.40;73.80
5964;DHT22;69025;53.712;9.680;2023-04-06T15:30:54;22.40;73.60
5964;DHT22;69025;53.712;9.680;2023-04-06T15:33:20;22.40;73.70
5964;DHT22;69025;53.712;9.680;2023-04-06T15:35:47;22.40;73.80
5964;DHT22;69025;53.712;9.680;2023-04-06T15:38:13;22.40;73.70
5964;DHT22;69025;53.712;9.680;2023-04-06T15:40:43;22.50;73.70
5964;DHT22;69025;53.712;9.680;2023-04-06T15:43:10;22.50;73.90
5964;DHT22;69025;53.712;9.680;2023-04-06T15:45:35;22.50;73.80
5964;DHT22;69025;53.712;9.680;2023-04-06T15:48:01;22.50;73.70
5964;DHT22;69025;53.712;9.680;2023-04-06T15:50:26;22.50;73.40